Time;durP1;ratioP1;P1;durP2;ratioP2;P2;SDS_P1;SDS_P2;PMS_P1;PMS_P2;Temp;Humidity;BMP_temperature;BMP_pressure;BME280_temperature;BME280_humidity;BME280_pressure;Samples;Min_cycle;Max_cycle;Signal;HPM_P1;HPM_P2
2022/11/22 00:01:11;;;;;;;6.88;4.10;;;12.10;62.50;;;;;;5023727;28;20068;-72
2022/11/22 00:03:37;;;;;;;5.30;3.80;;;12.00;62.50;;;;;;5023669;28;20044;-71
2022/11/22 00:06:03;;;;;;;6.03;4.18;;;12.00;62.60;;;;;;5022504;28;20085;-71
2022/11/22 00:08:29;;;;;;;6.07;4.55;;;12.10;62.60;;;;;;5023539;28;20017;-71
2022/11/22 00:10:55;;;;;;;5.85;4.40;;;12.10;62.50;;;;;;5023606;28;20064;-72
2022/11/22 00:13:20;;;;;;;6.38;4.38;;;12.10;62.40;;;;;;5023601;28;20236;-72
2022/11/22 00:16:02;;;;;;;5.93;4.63;;;12.20;62.30;;;;;;5023533;28;20420;-72
2022/11/22 00:18:29;;;;;;;6.35;4.45;;;12.10;62.30;;;;;;5023581;28;20045;-73
2022/11/22 00:20:55;;;;;;;6.82;5.10;;;12.10;62.40;;;;;;5023527;28;20025;-72
2022/11/22 00:23:21;;;;;;;6.53;4.85;;;12.10;62.60;;;;;;5023559;28;20077;-71
2022/11/22 00:25:47;;;;;;;5.95;4.30;;;12.00;62.60;;;;;;5039110;28;20018;-72
2022/11/22 00:28:12;;;;;;;6.05;4.60;;;12.10;62.60;;;;;;5023523;28;20187;-72
2022/11/22 00:30:38;;;;;;;6.85;4.53;;;12.10;62.60;;;;;;5023359;28;20060;-72
2022/11/22 00:33:04;;;;;;;6.05;4.78;;;12.10;62.60;;;;;;5023427;28;20211;-71
2022/11/22 00:35:30;;;;;;;6.63;4.13;;;12.10;62.50;;;;;;5023368;28;20018;-71
2022/11/22 00:37:55;;;;;;;6.45;4.60;;;12.10;62.40;;;;;;5022205;28;20017;-74
2022/11/22 00:40:21;;;;;;;6.57;4.65;;;12.10;62.50;;;;;;5023328;28;20029;-72
2022/11/22 00:42:47;;;;;;;6.50;4.95;;;12.10;62.50;;;;;;5023138;28;20053;-71
2022/11/22 00:45:13;;;;;;;6.53;4.90;;;12.10;62.60;;;;;;5023292;28;20026;-71
2022/11/22 00:47:39;;;;;;;8.98;5.07;;;12.10;62.60;;;;;;5023237;28;20092;-73
2022/11/22 00:50:05;;;;;;;5.82;4.40;;;12.00;62.60;;;;;;5023221;28;20313;-71
2022/11/22 00:52:31;;;;;;;5.82;4.60;;;12.00;62.60;;;;;;5023208;28;20056;-72
2022/11/22 00:54:56;;;;;;;6.00;4.68;;;12.00;62.50;;;;;;5023246;28;20022;-72
2022/11/22 00:57:23;;;;;;;6.07;4.57;;;12.10;62.50;;;;;;5023215;28;20302;-72
2022/11/22 00:59:48;;;;;;;5.63;4.22;;;12.10;62.40;;;;;;5023140;28;20026;-72
2022/11/22 01:02:14;;;;;;;6.85;5.10;;;12.10;62.30;;;;;;5025919;28;20219;-72
2022/11/22 01:04:40;;;;;;;6.43;4.38;;;12.10;62.20;;;;;;5026687;28;20022;-72
2022/11/22 01:07:06;;;;;;;6.25;4.70;;;12.10;62.30;;;;;;5026692;28;20026;-73
2022/11/22 01:09:31;;;;;;;7.35;4.80;;;12.10;62.50;;;;;;5026577;28;20025;-73
2022/11/22 01:11:57;;;;;;;8.07;4.75;;;12.00;62.50;;;;;;5041929;28;20044;-72
2022/11/22 01:14:23;;;;;;;5.85;4.78;;;12.10;62.40;;;;;;5026586;28;20041;-73
2022/11/22 01:16:49;;;;;;;6.25;4.63;;;12.10;62.40;;;;;;5026475;28;20024;-73
2022/11/22 01:19:15;;;;;;;5.40;4.18;;;12.10;62.40;;;;;;5026431;28;20018;-72
2022/11/22 01:21:40;;;;;;;6.15;4.20;;;12.10;62.50;;;;;;5026442;28;20026;-72
2022/11/22 01:24:07;;;;;;;5.07;4.43;;;12.10;62.40;;;;;;5025195;28;20030;-72
2022/11/22 01:26:33;;;;;;;4.72;3.85;;;12.10;62.50;;;;;;5026403;28;20252;-72
2022/11/22 01:28:59;;;;;;;6.20;4.35;;;12.10;62.50;;;;;;5026221;28;20018;-72
2022/11/22 01:31:25;;;;;;;5.65;3.97;;;12.10;62.50;;;;;;5026172;28;20469;-73
2022/11/22 01:33:51;;;;;;;5.65;4.20;;;12.10;62.60;;;;;;5026217;28;20014;-72
2022/11/22 01:36:17;;;;;;;5.18;4.00;;;12.00;62.50;;;;;;5026182;28;20018;-71
2022/11/22 01:38:42;;;;;;;6.05;4.13;;;12.00;62.50;;;;;;5024930;28;20137;-71
2022/11/22 01:41:08;;;;;;;7.18;4.40;;;12.00;62.60;;;;;;5041397;28;20317;-72
2022/11/22 01:43:34;;;;;;;4.97;3.80;;;12.00;62.50;;;;;;5025825;28;20084;-72
2022/11/22 01:46:07;;;;;;;7.10;5.00;;;12.10;62.40;;;;;;5025923;28;20036;-71
2022/11/22 01:48:48;;;;;;;4.95;3.92;;;12.10;62.30;;;;;;5024749;28;20101;-72
2022/11/22 01:51:23;;;;;;;5.35;4.60;;;12.10;62.20;;;;;;5025858;28;20013;-72
2022/11/22 01:53:50;;;;;;;6.55;4.32;;;12.10;62.30;;;;;;5025794;28;20017;-72
2022/11/22 01:56:19;;;;;;;6.22;5.13;;;12.10;62.30;;;;;;5024590;28;20018;-72
2022/11/22 01:58:49;;;;;;;6.00;4.10;;;12.10;62.30;;;;;;5024520;28;20517;-72
2022/11/22 02:01:15;;;;;;;5.40;4.00;;;12.10;62.40;;;;;;5025695;28;20025;-71
2022/11/22 02:03:45;;;;;;;5.22;4.15;;;12.10;62.30;;;;;;5024495;28;20022;-72
2022/11/22 02:06:12;;;;;;;6.45;4.38;;;12.10;62.30;;;;;;5025559;28;20022;-72
2022/11/22 02:09:04;;;;;;;5.10;4.20;;;12.10;62.40;;;;;;5025414;28;20026;-72
2022/11/22 02:11:30;;;;;;;5.68;4.57;;;12.10;62.50;;;;;;5025495;28;20024;-72
2022/11/22 02:13:57;;;;;;;6.15;4.53;;;12.00;62.40;;;;;;5024369;28;20318;-73
2022/11/22 02:16:23;;;;;;;4.82;3.92;;;12.00;62.60;;;;;;5025370;28;20208;-72
2022/11/22 02:18:49;;;;;;;5.90;4.78;;;12.00;62.60;;;;;;5024132;28;20032;-72
2022/11/22 02:21:14;;;;;;;6.43;4.40;;;12.00;62.50;;;;;;5025344;28;20042;-72
2022/11/22 02:24:12;;;;;;;5.43;3.92;;;12.00;62.60;;;;;;5040588;28;20241;-71
2022/11/22 02:26:38;;;;;;;6.38;4.15;;;12.00;62.50;;;;;;5025222;28;20220;-72
2022/11/22 02:29:06;;;;;;;5.35;3.70;;;12.00;62.40;;;;;;5025097;28;20040;-73
2022/11/22 02:31:41;;;;;;;5.22;3.88;;;12.10;62.40;;;;;;5040471;28;20249;-72
2022/11/22 02:34:07;;;;;;;5.85;4.25;;;12.10;62.30;;;;;;5040418;28;20256;-73
2022/11/22 02:36:41;;;;;;;4.60;3.53;;;12.10;62.20;;;;;;5025035;28;20018;-72
2022/11/22 02:39:10;;;;;;;5.25;3.92;;;12.10;62.20;;;;;;5025031;28;20313;-72
2022/11/22 02:41:37;;;;;;;5.13;4.15;;;12.10;62.20;;;;;;5024948;28;20034;-72
2022/11/22 02:44:04;;;;;;;5.40;4.20;;;12.10;62.80;;;;;;5023511;28;20102;-72
2022/11/22 02:46:29;;;;;;;5.43;4.15;;;12.10;62.20;;;;;;5040163;28;20053;-71
2022/11/22 02:48:55;;;;;;;4.35;3.63;;;12.10;62.30;;;;;;5024337;28;20022;-72
2022/11/22 02:51:21;;;;;;;5.28;4.25;;;12.10;62.30;;;;;;5024789;28;20412;-72
2022/11/22 02:53:49;;;;;;;5.93;4.43;;;12.00;62.40;;;;;;5024686;28;20039;-72
2022/11/22 02:56:15;;;;;;;6.38;4.25;;;12.00;62.40;;;;;;5024680;28;20186;-73
2022/11/22 02:58:43;;;;;;;6.05;4.47;;;12.00;62.40;;;;;;5024590;28;20017;-72
2022/11/22 03:01:09;;;;;;;4.75;4.07;;;12.00;62.50;;;;;;5024624;28;20028;-73
2022/11/22 03:03:35;;;;;;;4.57;3.50;;;12.00;62.50;;;;;;5024583;28;20022;-72
2022/11/22 03:06:01;;;;;;;5.40;4.25;;;12.00;62.70;;;;;;5024493;28;20085;-71
2022/11/22 03:08:27;;;;;;;5.10;3.75;;;12.00;62.70;;;;;;5039734;28;20093;-72
2022/11/22 03:10:55;;;;;;;5.65;4.43;;;12.00;62.60;;;;;;5023271;28;20017;-71
2022/11/22 03:13:21;;;;;;;6.00;4.50;;;12.00;62.50;;;;;;5024424;28;20201;-72
2022/11/22 03:15:47;;;;;;;5.82;4.32;;;12.00;62.40;;;;;;5024324;28;20239;-73
2022/11/22 03:18:13;;;;;;;4.85;3.80;;;12.10;62.30;;;;;;5024260;28;20077;-73
2022/11/22 03:20:38;;;;;;;6.07;4.30;;;12.10;62.20;;;;;;5024239;28;20048;-72
2022/11/22 03:23:04;;;;;;;5.55;4.13;;;12.10;62.10;;;;;;5039598;28;20022;-72
2022/11/22 03:25:30;;;;;;;5.63;4.32;;;12.10;62.10;;;;;;5023866;28;20045;-72
2022/11/22 03:27:56;;;;;;;6.53;4.45;;;12.10;62.20;;;;;;5022983;28;20340;-72
2022/11/22 03:30:22;;;;;;;5.65;4.18;;;12.10;62.20;;;;;;5023968;28;20051;-73
2022/11/22 03:32:47;;;;;;;6.57;4.45;;;12.10;62.30;;;;;;5023190;28;20065;-73
2022/11/22 03:35:13;;;;;;;5.22;3.90;;;12.10;62.30;;;;;;5024051;28;20020;-72
2022/11/22 03:37:39;;;;;;;6.45;4.22;;;12.00;62.30;;;;;;5039332;28;20048;-72
2022/11/22 03:40:05;;;;;;;4.38;3.75;;;12.00;62.40;;;;;;5023969;28;20025;-72
2022/11/22 03:42:31;;;;;;;6.97;4.72;;;12.00;62.30;;;;;;5023756;28;20128;-72
2022/11/22 03:44:57;;;;;;;5.18;4.03;;;12.00;63.10;;;;;;5023900;28;20034;-71
2022/11/22 03:47:23;;;;;;;5.57;3.97;;;11.90;62.50;;;;;;5023814;28;20022;-72
2022/11/22 03:49:49;;;;;;;6.65;5.10;;;11.90;62.60;;;;;;5023757;28;20022;-72
2022/11/22 03:52:14;;;;;;;5.65;4.50;;;11.90;62.60;;;;;;5023865;28;20025;-72
2022/11/22 03:54:40;;;;;;;7.05;4.53;;;11.90;62.60;;;;;;5023817;28;20064;-72
2022/11/22 03:57:06;;;;;;;5.95;4.57;;;12.00;62.60;;;;;;5022609;28;20018;-72
2022/11/22 03:59:32;;;;;;;5.38;3.75;;;12.00;62.50;;;;;;5023728;28;20022;-72
2022/11/22 04:01:58;;;;;;;6.70;4.03;;;12.10;62.40;;;;;;5023666;28;20021;-73
2022/11/22 04:04:23;;;;;;;4.97;3.80;;;12.10;62.20;;;;;;5023729;28;20026;-73
2022/11/22 04:06:49;;;;;;;5.10;4.10;;;12.10;62.20;;;;;;5023689;28;20026;-72
2022/11/22 04:09:15;;;;;;;6.82;4.30;;;12.10;62.20;;;;;;5023571;28;20138;-72
2022/11/22 04:11:41;;;;;;;5.38;4.57;;;12.10;62.20;;;;;;5038964;28;20076;-73
2022/11/22 04:16:55;;;;;;;5.07;4.18;;;12.10;62.20;;;;;;5023609;28;20013;-73
2022/11/22 04:19:20;;;;;;;5.68;4.10;;;12.00;62.40;;;;;;5023515;28;20025;-72
2022/11/22 04:21:46;;;;;;;6.07;4.35;;;12.00;62.30;;;;;;5023487;28;20022;-72
2022/11/22 04:26:56;;;;;;;4.25;3.70;;;12.00;62.40;;;;;;5023463;28;20060;-73
2022/11/22 04:29:23;;;;;;;7.43;4.50;;;12.00;62.60;;;;;;5038681;28;20093;-71
2022/11/22 04:34:35;;;;;;;4.05;3.08;;;11.90;62.50;;;;;;5023464;28;20351;-73
2022/11/22 04:37:01;;;;;;;5.57;3.95;;;12.00;62.60;;;;;;5026001;28;20187;-72
2022/11/22 04:39:27;;;;;;;5.18;4.22;;;12.00;62.60;;;;;;5027232;28;20333;-72
2022/11/22 04:44:41;;;;;;;4.80;3.65;;;12.00;62.50;;;;;;5026955;28;20080;-73
2022/11/22 04:49:59;;;;;;;4.50;3.80;;;12.10;62.20;;;;;;5026982;28;20132;-73
2022/11/22 04:55:09;;;;;;;3.95;3.40;;;12.10;62.20;;;;;;5026969;28;20030;-73
2022/11/22 04:57:35;;;;;;;5.68;3.90;;;12.00;62.20;;;;;;5026904;28;20077;-72
2022/11/22 05:00:01;;;;;;;5.53;4.22;;;12.00;62.20;;;;;;5026855;28;20013;-72
2022/11/22 05:02:27;;;;;;;5.65;3.80;;;12.10;62.40;;;;;;5025640;28;20041;-71
2022/11/22 05:04:52;;;;;;;5.07;3.95;;;12.00;62.30;;;;;;5026745;28;20081;-72
2022/11/22 05:07:18;;;;;;;4.57;3.65;;;12.00;62.40;;;;;;5025486;28;20248;-72
2022/11/22 05:09:44;;;;;;;5.22;3.83;;;12.00;62.50;;;;;;5026584;28;20045;-71
2022/11/22 05:12:09;;;;;;;6.43;4.20;;;11.90;62.50;;;;;;5041963;28;20021;-73
2022/11/22 05:14:35;;;;;;;6.43;4.25;;;11.90;62.50;;;;;;5025449;28;20014;-73
2022/11/22 05:17:01;;;;;;;4.85;4.13;;;11.90;62.60;;;;;;5041881;28;20022;-72
2022/11/22 05:19:27;;;;;;;6.10;4.18;;;11.90;62.60;;;;;;5026507;28;20025;-72
2022/11/22 05:21:52;;;;;;;5.10;3.95;;;11.90;62.60;;;;;;5026454;28;20026;-73
2022/11/22 05:24:18;;;;;;;4.72;4.03;;;11.90;62.50;;;;;;5025229;28;20022;-71
2022/11/22 05:26:44;;;;;;;5.88;3.78;;;12.00;62.60;;;;;;5026321;28;20243;-73
2022/11/22 05:29:10;;;;;;;5.88;4.07;;;12.00;62.30;;;;;;5026198;28;20052;-72
2022/11/22 05:31:37;;;;;;;4.95;4.03;;;12.00;62.30;;;;;;5026174;28;20069;-74
2022/11/22 05:34:04;;;;;;;5.78;3.90;;;12.10;62.20;;;;;;5026260;28;20125;-72
2022/11/22 05:36:32;;;;;;;4.93;3.78;;;12.10;62.20;;;;;;5026148;28;20018;-72
2022/11/22 05:38:58;;;;;;;6.88;4.53;;;12.10;62.30;;;;;;5024907;28;20018;-71
2022/11/22 05:41:24;;;;;;;4.22;3.72;;;12.00;62.30;;;;;;5026073;28;20025;-73
2022/11/22 05:43:49;;;;;;;4.80;3.60;;;12.00;62.30;;;;;;5025803;28;20038;-73
2022/11/22 05:46:23;;;;;;;4.57;3.97;;;12.00;62.40;;;;;;5025974;28;20068;-72
2022/11/22 05:48:49;;;;;;;4.80;3.88;;;12.00;62.40;;;;;;5025837;28;20017;-72
2022/11/22 05:51:18;;;;;;;6.07;4.35;;;12.00;62.40;;;;;;5025829;28;20432;-72
2022/11/22 05:53:45;;;;;;;5.35;3.72;;;12.00;62.40;;;;;;5025842;28;20126;-74
2022/11/22 05:56:22;;;;;;;4.15;3.75;;;11.90;62.40;;;;;;5024632;28;20028;-72
2022/11/22 05:58:48;;;;;;;4.60;3.70;;;11.90;62.40;;;;;;5025766;28;20026;-73
2022/11/22 06:01:18;;;;;;;4.40;3.55;;;11.90;62.60;;;;;;5025770;28;20022;-71
2022/11/22 06:03:44;;;;;;;5.50;3.72;;;11.90;62.50;;;;;;5025720;28;20049;-72
2022/11/22 06:06:10;;;;;;;4.32;3.45;;;11.90;62.60;;;;;;5025617;28;20018;-71
2022/11/22 06:08:39;;;;;;;3.95;3.60;;;11.90;62.60;;;;;;5025487;28;20345;-71
2022/11/22 06:11:07;;;;;;;4.68;3.63;;;11.90;62.50;;;;;;5025526;28;20048;-71
2022/11/22 06:13:38;;;;;;;3.97;3.57;;;12.00;62.40;;;;;;5025510;28;20044;-71
2022/11/22 06:16:06;;;;;;;4.93;3.85;;;12.00;62.30;;;;;;5025469;28;20018;-71
2022/11/22 06:18:32;;;;;;;5.18;3.88;;;12.00;62.20;;;;;;5024303;28;20029;-72
2022/11/22 06:21:00;;;;;;;5.45;4.63;;;12.10;62.20;;;;;;5025289;28;20182;-72
2022/11/22 06:23:26;;;;;;;5.82;3.63;;;12.10;62.20;;;;;;5040611;28;20024;-72
2022/11/22 06:26:00;;;;;;;5.32;4.22;;;12.10;62.20;;;;;;5024040;28;20014;-72
2022/11/22 06:28:28;;;;;;;4.55;3.88;;;12.00;62.20;;;;;;5025142;28;20025;-72
2022/11/22 06:30:59;;;;;;;5.05;3.83;;;12.00;62.20;;;;;;5025200;28;20025;-70
2022/11/22 06:33:24;;;;;;;5.13;4.05;;;12.00;62.20;;;;;;5025115;28;20014;-70
2022/11/22 06:35:50;;;;;;;5.20;4.20;;;12.00;62.30;;;;;;5023855;28;20018;-72
2022/11/22 06:38:16;;;;;;;4.05;3.40;;;12.00;62.30;;;;;;5040307;28;20014;-71
2022/11/22 06:40:42;;;;;;;4.20;3.80;;;12.00;62.40;;;;;;5023744;28;20022;-71
2022/11/22 06:43:08;;;;;;;5.25;3.80;;;12.00;62.40;;;;;;5023574;28;20121;-72
2022/11/22 06:45:33;;;;;;;4.63;3.83;;;11.90;62.40;;;;;;5024879;28;20053;-72
2022/11/22 06:47:59;;;;;;;4.18;3.70;;;11.90;62.40;;;;;;5023751;28;20213;-70
2022/11/22 06:50:25;;;;;;;5.53;4.03;;;11.90;62.50;;;;;;5024695;28;20030;-70
2022/11/22 06:52:52;;;;;;;4.82;3.70;;;11.90;62.60;;;;;;5024749;28;20013;-70
2022/11/22 06:55:18;;;;;;;4.85;3.85;;;12.00;62.40;;;;;;5024711;28;20024;-70
2022/11/22 06:57:48;;;;;;;4.93;3.55;;;12.10;62.20;;;;;;5024655;28;20018;-72
2022/11/22 07:00:14;;;;;;;4.40;3.58;;;12.10;62.00;;;;;;5024127;28;20022;-73
2022/11/22 07:02:40;;;;;;;5.45;4.25;;;12.10;61.80;;;;;;5024538;28;20017;-71
2022/11/22 07:05:06;;;;;;;5.03;3.80;;;12.10;61.90;;;;;;5024583;28;20025;-72
2022/11/22 07:07:32;;;;;;;5.20;3.70;;;12.10;62.00;;;;;;5039842;28;20041;-72
2022/11/22 07:09:57;;;;;;;4.80;3.53;;;12.10;62.10;;;;;;5024380;28;20021;-71
2022/11/22 07:12:23;;;;;;;4.82;3.97;;;12.10;62.10;;;;;;5023278;28;20014;-70
2022/11/22 07:14:49;;;;;;;5.13;3.85;;;12.00;62.00;;;;;;5023228;28;20029;-71
2022/11/22 07:17:15;;;;;;;4.22;3.40;;;12.10;62.00;;;;;;5024298;28;20018;-72
2022/11/22 07:19:41;;;;;;;3.50;3.08;;;12.10;62.00;;;;;;5039631;28;20033;-70
2022/11/22 07:22:06;;;;;;;4.57;3.80;;;12.10;62.10;;;;;;5024263;28;20022;-72
2022/11/22 07:24:32;;;;;;;4.53;3.60;;;12.00;62.10;;;;;;5023052;28;20022;-72
2022/11/22 07:26:58;;;;;;;4.75;3.60;;;12.00;62.00;;;;;;5024178;28;20018;-72
2022/11/22 07:29:27;;;;;;;3.63;3.15;;;12.00;62.10;;;;;;5024114;28;20067;-72
2022/11/22 07:31:52;;;;;;;6.65;4.10;;;12.00;62.10;;;;;;5024110;28;20017;-70
2022/11/22 07:34:18;;;;;;;4.78;3.70;;;12.00;62.20;;;;;;5024123;28;20036;-69
2022/11/22 07:36:44;;;;;;;5.75;3.85;;;12.00;62.20;;;;;;5024022;28;20021;-71
2022/11/22 07:39:10;;;;;;;5.05;3.85;;;12.00;62.20;;;;;;5039261;28;20054;-70
2022/11/22 07:41:36;;;;;;;4.20;3.28;;;12.10;62.10;;;;;;5022746;28;20017;-71
2022/11/22 07:44:02;;;;;;;4.28;3.72;;;12.10;61.90;;;;;;5022608;28;20057;-71
2022/11/22 07:46:30;;;;;;;5.15;3.58;;;12.10;62.00;;;;;;5022747;28;20104;-70
2022/11/22 07:48:57;;;;;;;5.53;3.80;;;12.10;62.00;;;;;;5023774;28;20191;-73
2022/11/22 07:51:23;;;;;;;3.70;2.92;;;12.10;62.10;;;;;;5022701;28;20071;-72
2022/11/22 07:53:49;;;;;;;12.77;4.07;;;12.10;62.10;;;;;;5031087;28;20049;-70
2022/11/22 07:56:15;;;;;;;9.60;3.75;;;12.00;62.20;;;;;;5042258;28;20021;-70
2022/11/22 07:58:41;;;;;;;13.98;4.53;;;12.00;62.20;;;;;;5037051;28;20028;-71
2022/11/22 08:01:15;;;;;;;21.00;5.15;;;12.00;62.20;;;;;;5026682;28;20014;-70
2022/11/22 08:03:41;;;;;;;9.35;4.00;;;11.90;62.10;;;;;;5025263;28;20018;-69
2022/11/22 08:06:10;;;;;;;8.20;3.80;;;12.00;62.40;;;;;;5024998;28;20033;-67
2022/11/22 08:08:36;;;;;;;11.73;4.40;;;12.00;62.50;;;;;;5036482;28;20022;-70
2022/11/22 08:11:03;;;;;;;6.30;3.60;;;12.10;62.80;;;;;;5045461;28;20025;-67
2022/11/22 08:13:29;;;;;;;11.45;4.35;;;12.20;62.00;;;;;;5047775;28;20309;-70
2022/11/22 08:16:01;;;;;;;11.38;4.13;;;12.20;61.90;;;;;;5048146;28;20209;-66
2022/11/22 08:18:27;;;;;;;7.60;4.03;;;12.20;62.00;;;;;;5047963;28;20009;-67
2022/11/22 08:21:02;;;;;;;14.15;5.00;;;12.30;62.00;;;;;;5046408;28;20206;-71
2022/11/22 08:23:28;;;;;;;9.60;4.57;;;12.30;61.90;;;;;;5045338;28;20026;-66
2022/11/22 08:25:54;;;;;;;8.77;4.88;;;12.30;61.90;;;;;;5036984;28;20085;-67
2022/11/22 08:28:19;;;;;;;8.77;4.82;;;12.30;61.90;;;;;;5027026;28;20026;-66
2022/11/22 08:30:45;;;;;;;34.88;5.38;;;12.30;62.10;;;;;;5030564;28;20059;-66
2022/11/22 08:33:11;;;;;;;100.82;13.27;;;12.30;62.00;;;;;;5043220;28;20021;-67
2022/11/22 08:35:37;;;;;;;45.35;7.60;;;12.40;62.00;;;;;;5041780;28;20022;-66
2022/11/22 08:38:02;;;;;;;26.88;5.82;;;12.40;62.10;;;;;;5032367;28;20024;-66
2022/11/22 08:40:28;;;;;;;30.50;5.30;;;12.30;62.20;;;;;;5036154;28;20024;-66
2022/11/22 08:42:55;;;;;;;31.05;6.05;;;12.40;62.20;;;;;;5031873;28;20371;-65
2022/11/22 08:45:21;;;;;;;28.02;6.28;;;12.40;62.30;;;;;;5032729;28;20229;-66
2022/11/22 08:47:47;;;;;;;25.73;4.82;;;12.40;62.20;;;;;;5027266;28;20029;-65
2022/11/22 08:50:14;;;;;;;42.38;4.80;;;12.40;62.00;;;;;;5026560;28;20304;-65
2022/11/22 08:52:40;;;;;;;25.73;5.25;;;12.50;61.90;;;;;;5031155;28;20022;-67
2022/11/22 08:55:06;;;;;;;22.63;4.63;;;12.50;61.80;;;;;;5043605;28;20017;-65
2022/11/22 08:57:32;;;;;;;22.77;5.20;;;12.60;61.80;;;;;;5030957;28;20029;-66
2022/11/22 08:59:58;;;;;;;29.02;5.95;;;12.50;62.10;;;;;;5027410;28;20045;-67
2022/11/22 09:02:23;;;;;;;26.10;6.43;;;12.50;62.10;;;;;;5027116;28;20311;-66
2022/11/22 09:04:49;;;;;;;29.08;6.13;;;12.50;62.10;;;;;;5026987;28;20022;-66
2022/11/22 09:07:15;;;;;;;27.33;5.80;;;12.50;62.20;;;;;;5028482;28;20081;-67
2022/11/22 09:09:41;;;;;;;30.88;6.25;;;12.60;62.10;;;;;;5037455;28;20033;-67
2022/11/22 09:12:07;;;;;;;18.08;6.00;;;12.60;62.10;;;;;;5036536;28;20060;-67
2022/11/22 09:14:32;;;;;;;19.88;5.95;;;12.60;62.20;;;;;;5026764;28;20083;-66
2022/11/22 09:16:58;;;;;;;20.52;6.10;;;12.60;62.20;;;;;;5025450;28;20029;-66
2022/11/22 09:19:24;;;;;;;31.80;6.35;;;12.60;62.20;;;;;;5026445;28;20241;-67
2022/11/22 09:21:50;;;;;;;23.38;6.53;;;12.60;62.40;;;;;;5031275;28;20100;-65
2022/11/22 09:24:16;;;;;;;20.67;5.72;;;12.50;62.50;;;;;;5037209;28;20213;-65
2022/11/22 09:26:41;;;;;;;15.52;5.82;;;12.50;62.60;;;;;;5046051;28;20063;-65
2022/11/22 09:29:07;;;;;;;25.67;6.00;;;12.50;62.60;;;;;;5045887;28;20025;-67
2022/11/22 09:31:33;;;;;;;19.42;5.53;;;12.50;62.60;;;;;;5046121;28;20248;-65
2022/11/22 09:33:59;;;;;;;38.35;7.80;;;12.50;62.60;;;;;;5045999;28;20021;-65
2022/11/22 09:36:25;;;;;;;18.83;5.68;;;12.50;62.80;;;;;;5044727;28;20096;-65
2022/11/22 09:38:51;;;;;;;34.38;7.10;;;12.50;62.70;;;;;;5045755;28;20029;-65
2022/11/22 09:41:51;;;;;;;27.45;6.90;;;12.60;62.70;;;;;;5045763;28;20021;-66
2022/11/22 09:44:35;;;;;;;21.67;5.63;;;12.70;62.50;;;;;;5036781;28;20443;-67
2022/11/22 09:47:26;;;;;;;38.70;6.28;;;12.60;62.90;;;;;;5033432;28;20044;-65
2022/11/22 09:50:16;;;;;;;24.75;6.03;;;12.60;62.90;;;;;;5026403;28;20213;-67
2022/11/22 09:52:49;;;;;;;24.77;5.70;;;12.60;63.00;;;;;;5036118;28;20124;-65
2022/11/22 09:55:23;;;;;;;19.83;5.47;;;12.60;63.10;;;;;;5034496;28;20025;-66
2022/11/22 09:58:01;;;;;;;21.55;5.25;;;12.60;63.10;;;;;;5045322;28;20044;-66
2022/11/22 10:00:28;;;;;;;16.80;5.25;;;12.60;62.90;;;;;;5043564;28;20045;-65
2022/11/22 10:03:24;;;;;;;19.90;4.85;;;12.70;62.70;;;;;;5035788;28;20017;-65
2022/11/22 10:05:52;;;;;;;18.90;5.53;;;12.80;62.50;;;;;;5025311;28;20013;-65
2022/11/22 10:08:56;;;;;;;28.05;5.95;;;12.80;62.50;;;;;;5025152;28;20022;-67
2022/11/22 10:11:24;;;;;;;18.85;5.03;;;12.70;62.40;;;;;;5025295;28;20026;-66
2022/11/22 10:13:55;;;;;;;12.77;4.50;;;12.80;62.30;;;;;;5025006;28;20013;-67
2022/11/22 10:16:36;;;;;;;19.02;5.78;;;12.90;62.20;;;;;;5023846;28;20117;-66
2022/11/22 10:19:19;;;;;;;16.98;4.95;;;12.90;62.10;;;;;;5024880;28;20060;-65
2022/11/22 10:21:48;;;;;;;20.33;5.78;;;12.90;62.00;;;;;;5025055;28;20325;-67
2022/11/22 10:24:16;;;;;;;12.98;4.80;;;12.90;62.00;;;;;;5024983;28;20048;-65
2022/11/22 10:26:43;;;;;;;15.93;4.93;;;12.90;62.70;;;;;;5024876;28;20068;-64
2022/11/22 10:29:34;;;;;;;22.90;5.50;;;12.90;62.20;;;;;;5025578;28;20205;-67
2022/11/22 10:32:17;;;;;;;17.80;5.18;;;12.80;62.80;;;;;;5024887;28;20021;-66
2022/11/22 10:34:58;;;;;;;55.88;9.85;;;12.80;62.70;;;;;;5023967;28;20018;-67
2022/11/22 10:37:49;;;;;;;42.22;6.93;;;12.70;63.00;;;;;;5034195;28;20085;-66
2022/11/22 10:40:42;;;;;;;35.63;6.57;;;12.80;63.00;;;;;;5024616;28;20057;-66
2022/11/22 10:43:23;;;;;;;32.33;5.20;;;12.80;62.90;;;;;;5034569;28;20105;-66
2022/11/22 10:45:54;;;;;;;21.50;5.38;;;12.80;62.90;;;;;;5025839;28;20037;-66
2022/11/22 10:48:29;;;;;;;20.70;5.10;;;12.90;62.80;;;;;;5025907;28;20022;-65
2022/11/22 10:50:54;;;;;;;17.98;5.00;;;12.90;62.60;;;;;;5024321;28;20037;-66
2022/11/22 10:53:30;;;;;;;28.85;7.88;;;12.90;62.70;;;;;;5024414;28;20021;-66
2022/11/22 10:56:13;;;;;;;17.20;5.13;;;12.90;62.80;;;;;;5024352;28;20068;-66
2022/11/22 10:59:09;;;;;;;17.23;4.85;;;12.80;62.80;;;;;;5024967;28;20021;-65
2022/11/22 11:02:04;;;;;;;26.25;6.75;;;12.80;63.00;;;;;;5024384;28;20017;-65
2022/11/22 11:04:35;;;;;;;16.58;5.15;;;12.80;63.10;;;;;;5024310;28;20033;-66
2022/11/22 11:07:04;;;;;;;25.90;5.65;;;12.70;63.10;;;;;;5022911;28;20089;-65
2022/11/22 11:09:30;;;;;;;;;;;12.70;63.30;;;;;;5025129;28;20033;-65
2022/11/22 11:11:57;;;;;;;26.02;6.03;;;12.70;63.30;;;;;;5024131;28;19901;-65
2022/11/22 11:14:30;;;;;;;16.77;4.00;;;12.70;63.40;;;;;;5026316;28;20076;-66
2022/11/22 11:16:56;;;;;;;26.88;5.65;;;12.70;63.30;;;;;;5023990;28;20209;-65
2022/11/22 11:19:29;;;;;;;17.92;4.93;;;12.70;63.30;;;;;;5022710;28;20194;-65
2022/11/22 11:22:00;;;;;;;16.50;5.95;;;12.80;63.20;;;;;;5023996;28;20026;-65
2022/11/22 11:24:29;;;;;;;20.25;4.78;;;12.80;63.10;;;;;;5035264;28;20025;-66
2022/11/22 11:26:57;;;;;;;35.30;6.03;;;12.80;63.00;;;;;;5024401;28;20064;-66
2022/11/22 11:29:22;;;;;;;26.17;5.60;;;12.80;63.20;;;;;;5038084;28;20221;-67
2022/11/22 11:32:02;;;;;;;38.63;7.40;;;12.90;63.40;;;;;;5035878;28;20021;-66
2022/11/22 11:34:28;;;;;;;30.80;6.82;;;12.80;63.30;;;;;;5038575;28;20048;-67
2022/11/22 11:36:59;;;;;;;28.63;5.80;;;12.90;63.40;;;;;;5043535;28;20020;-67
2022/11/22 11:39:30;;;;;;;24.02;5.82;;;12.90;63.30;;;;;;5042094;28;20017;-66
2022/11/22 11:41:57;;;;;;;34.47;6.03;;;12.90;63.30;;;;;;5043392;28;20048;-66
2022/11/22 11:44:26;;;;;;;29.25;5.85;;;12.90;63.40;;;;;;5040193;28;20033;-66
2022/11/22 11:46:51;;;;;;;21.60;6.35;;;12.80;63.30;;;;;;5032672;28;20029;-66
2022/11/22 11:49:22;;;;;;;21.63;6.10;;;12.80;63.40;;;;;;5023976;28;20067;-66
2022/11/22 11:51:58;;;;;;;31.63;6.20;;;12.80;63.50;;;;;;5023559;28;20014;-65
2022/11/22 11:54:29;;;;;;;27.35;5.78;;;12.80;63.50;;;;;;5023461;28;20085;-66
2022/11/22 11:57:00;;;;;;;27.85;6.05;;;12.80;63.60;;;;;;5023520;28;20026;-65
2022/11/22 11:59:37;;;;;;;29.48;5.55;;;12.80;63.60;;;;;;5023218;28;20212;-66
2022/11/22 12:02:23;;;;;;;31.35;7.50;;;12.80;63.40;;;;;;5023423;28;20033;-66
2022/11/22 12:04:55;;;;;;;25.15;5.90;;;12.90;63.40;;;;;;5025380;28;20385;-67
2022/11/22 12:07:37;;;;;;;20.83;6.70;;;12.90;63.50;;;;;;5042977;28;20030;-67
2022/11/22 12:10:25;;;;;;;22.45;6.13;;;12.90;63.60;;;;;;5036651;28;20063;-66
2022/11/22 12:13:02;;;;;;;17.33;5.68;;;12.90;63.50;;;;;;5042083;28;20348;-67
2022/11/22 12:15:44;;;;;;;21.90;5.75;;;12.90;63.60;;;;;;5043021;28;20030;-66
2022/11/22 12:18:31;;;;;;;23.63;5.47;;;12.90;63.70;;;;;;5042841;28;20029;-66
2022/11/22 12:20:57;;;;;;;30.95;5.93;;;12.80;63.70;;;;;;5033159;28;20026;-67
2022/11/22 12:23:25;;;;;;;27.13;6.72;;;12.80;64.30;;;;;;5023220;28;20155;-67
2022/11/22 12:25:55;;;;;;;21.80;5.60;;;12.80;64.10;;;;;;5023334;28;20048;-65
2022/11/22 12:28:26;;;;;;;21.13;5.53;;;12.80;64.00;;;;;;5023045;28;20251;-66
2022/11/22 12:30:58;;;;;;;27.23;6.15;;;12.80;64.00;;;;;;5023139;28;20026;-66
2022/11/22 12:33:35;;;;;;;23.95;6.57;;;12.80;63.90;;;;;;5023190;28;20020;-67
2022/11/22 12:36:05;;;;;;;18.83;5.57;;;12.80;63.80;;;;;;5026349;28;20021;-68
2022/11/22 12:38:35;;;;;;;26.20;6.85;;;12.90;63.90;;;;;;5030787;28;20028;-68
2022/11/22 12:41:06;;;;;;;30.90;6.30;;;12.80;63.90;;;;;;5023546;28;20213;-68
2022/11/22 12:44:01;;;;;;;21.45;6.13;;;12.90;63.90;;;;;;5022882;28;20341;-70
2022/11/22 12:46:36;;;;;;;46.75;6.72;;;12.90;63.80;;;;;;5034946;28;20040;-68
2022/11/22 12:49:11;;;;;;;25.45;7.53;;;12.90;63.80;;;;;;5023711;28;20026;-69
2022/11/22 12:51:46;;;;;;;19.00;5.85;;;12.90;63.90;;;;;;5023019;28;20314;-69
2022/11/22 12:54:18;;;;;;;28.67;7.55;;;12.90;63.90;;;;;;5022982;28;20244;-68
2022/11/22 12:56:53;;;;;;;27.65;5.38;;;12.90;64.00;;;;;;5023484;28;20121;-70
2022/11/22 12:59:40;;;;;;;30.17;6.68;;;12.80;64.10;;;;;;5032146;28;20333;-69
2022/11/22 13:02:35;;;;;;;29.35;6.45;;;12.80;64.50;;;;;;5036600;28;20049;-68
2022/11/22 13:05:19;;;;;;;36.50;6.85;;;12.80;64.70;;;;;;5041696;28;20020;-68
2022/11/22 13:08:00;;;;;;;32.85;7.10;;;12.80;64.50;;;;;;5046279;28;20021;-68
2022/11/22 13:10:31;;;;;;;40.70;7.03;;;12.80;64.80;;;;;;5045988;28;20029;-68